Time;durP1;ratioP1;P1;durP2;ratioP2;P2;SDS_P1;SDS_P2;PMS_P1;PMS_P2;Temp;Humidity;BMP_temperature;BMP_pressure;BME280_temperature;BME280_humidity;BME280_pressure;Samples;Min_cycle;Max_cycle;Signal;HPM_P1;HPM_P2
2022/04/17 00:01:19;;;;;;;7.03;3.80;;;;;;;;;;5056934;28;20123;-82
2022/04/17 00:03:47;;;;;;;7.20;3.63;;;;;;;;;;5058348;28;20078;-82
2022/04/17 00:06:15;;;;;;;6.13;2.95;;;;;;;;;;5048578;28;20107;-82
2022/04/17 00:08:43;;;;;;;5.93;3.60;;;;;;;;;;5037995;28;20088;-82
2022/04/17 00:11:12;;;;;;;5.65;3.25;;;;;;;;;;5038235;28;20162;-82
2022/04/17 00:13:40;;;;;;;4.57;3.20;;;;;;;;;;5052281;28;20049;-82
2022/04/17 00:16:11;;;;;;;6.72;3.53;;;;;;;;;;5037415;28;20064;-82
2022/04/17 00:18:41;;;;;;;10.52;3.60;;;;;;;;;;5036809;28;20053;-82
2022/04/17 00:21:10;;;;;;;6.82;3.38;;;;;;;;;;5036381;28;20052;-82
2022/04/17 00:23:39;;;;;;;8.80;3.47;;;;;;;;;;5036513;28;20377;-82
2022/04/17 00:26:10;;;;;;;6.40;3.78;;;;;;;;;;5042424;28;20128;-82
2022/04/17 00:28:39;;;;;;;6.03;3.35;;;;;;;;;;5055578;28;20132;-82
2022/04/17 00:31:10;;;;;;;5.90;3.67;;;;;;;;;;5048427;28;20564;-82
2022/04/17 00:33:38;;;;;;;8.00;3.78;;;;;;;;;;5036705;28;20050;-82
2022/04/17 00:36:11;;;;;;;7.25;3.67;;;;;;;;;;5044814;28;20072;-82
2022/04/17 00:38:39;;;;;;;3.95;2.90;;;;;;;;;;5055776;28;20104;-82
2022/04/17 00:41:10;;;;;;;4.45;2.97;;;;;;;;;;5056093;28;20048;-82
2022/04/17 00:43:45;;;;;;;6.22;3.90;;;;;;;;;;5056167;28;20049;-82
2022/04/17 00:46:13;;;;;;;6.00;3.40;;;;;;;;;;5054426;28;20060;-82
2022/04/17 00:48:42;;;;;;;4.10;3.17;;;;;;;;;;5042123;28;20049;-82
2022/04/17 00:51:11;;;;;;;6.22;3.58;;;;;;;;;;5035444;28;20048;-82
2022/04/17 00:53:41;;;;;;;5.93;3.53;;;;;;;;;;5035503;28;20114;-82
2022/04/17 00:56:10;;;;;;;6.70;3.50;;;;;;;;;;5040078;28;20100;-82
2022/04/17 00:58:39;;;;;;;5.90;3.55;;;;;;;;;;5054932;28;20135;-82
2022/04/17 01:01:10;;;;;;;8.63;3.65;;;;;;;;;;5056134;28;20089;-82
2022/04/17 01:03:39;;;;;;;5.97;3.45;;;;;;;;;;5056097;28;20049;-82
2022/04/17 01:06:12;;;;;;;7.53;3.42;;;;;;;;;;5039124;28;20088;-82
2022/04/17 01:08:41;;;;;;;5.28;3.33;;;;;;;;;;5035441;28;20076;-82
2022/04/17 01:11:09;;;;;;;6.03;3.45;;;;;;;;;;5035674;28;20088;-82
2022/04/17 01:13:39;;;;;;;7.00;3.53;;;;;;;;;;5035287;28;20054;-82
2022/04/17 01:16:08;;;;;;;6.25;3.58;;;;;;;;;;5037980;28;20195;-82
2022/04/17 01:18:59;;;;;;;6.45;3.50;;;;;;;;;;5040047;28;20048;-82
2022/04/17 01:21:29;;;;;;;7.97;3.42;;;;;;;;;;5040270;28;20116;-82
2022/04/17 01:26:57;;;;;;;8.68;4.00;;;;;;;;;;5040398;28;20136;-82
2022/04/17 01:29:27;;;;;;;6.60;3.15;;;;;;;;;;5039550;28;20080;-82
2022/04/17 01:31:55;;;;;;;6.60;3.67;;;;;;;;;;5040111;28;20076;-82
2022/04/17 01:34:24;;;;;;;7.43;3.58;;;;;;;;;;5040073;28;20072;-82
2022/04/17 01:36:54;;;;;;;6.60;3.65;;;;;;;;;;5053686;28;20052;-81
2022/04/17 01:39:22;;;;;;;7.95;3.72;;;;;;;;;;5047055;28;20041;-83
2022/04/17 01:41:51;;;;;;;6.70;3.40;;;;;;;;;;5045013;28;20108;-83
2022/04/17 01:44:20;;;;;;;4.60;3.08;;;;;;;;;;5057949;28;20461;-82
2022/04/17 01:46:48;;;;;;;6.15;3.80;;;;;;;;;;5058791;28;20041;-82
2022/04/17 01:49:17;;;;;;;6.82;3.75;;;;;;;;;;5058493;28;20052;-81
2022/04/17 01:51:46;;;;;;;6.60;3.88;;;;;;;;;;5059004;28;20086;-82
2022/04/17 01:54:16;;;;;;;8.18;3.63;;;;;;;;;;5059316;28;20049;-82
2022/04/17 01:56:46;;;;;;;7.15;3.60;;;;;;;;;;5057623;28;20059;-82
2022/04/17 01:59:14;;;;;;;6.07;3.45;;;;;;;;;;5058285;28;20128;-82
2022/04/17 02:01:42;;;;;;;7.13;3.80;;;;;;;;;;5058913;28;20136;-82
2022/04/17 02:04:11;;;;;;;6.68;3.13;;;;;;;;;;5058991;28;20055;-82
2022/04/17 02:06:40;;;;;;;6.13;3.78;;;;;;;;;;5046220;28;20041;-82
2022/04/17 02:09:09;;;;;;;10.05;4.80;;;;;;;;;;5038476;28;20335;-82
2022/04/17 02:11:39;;;;;;;7.10;3.90;;;;;;;;;;5038845;28;20085;-83
2022/04/17 02:14:08;;;;;;;6.10;4.05;;;;;;;;;;5038795;28;20079;-82
2022/04/17 02:16:36;;;;;;;6.20;3.85;;;;;;;;;;5037698;28;20466;-82
2022/04/17 02:19:04;;;;;;;6.38;3.90;;;;;;;;;;5038303;28;20156;-82
2022/04/17 02:21:33;;;;;;;7.80;4.50;;;;;;;;;;5039187;28;20053;-81
2022/04/17 02:24:01;;;;;;;9.48;4.70;;;;;;;;;;5038493;28;20409;-82
2022/04/17 02:26:30;;;;;;;7.78;4.18;;;;;;;;;;5054929;28;20053;-82
2022/04/17 02:29:00;;;;;;;5.82;3.90;;;;;;;;;;5056101;28;20480;-82
2022/04/17 02:31:28;;;;;;;7.35;4.50;;;;;;;;;;5038800;28;20136;-82
2022/04/17 02:33:59;;;;;;;7.45;4.35;;;;;;;;;;5038133;28;20060;-82
2022/04/17 02:36:28;;;;;;;10.63;4.80;;;;;;;;;;5049182;28;20415;-82
2022/04/17 02:38:56;;;;;;;8.60;4.25;;;;;;;;;;5057057;28;20053;-82
2022/04/17 02:41:24;;;;;;;7.22;4.05;;;;;;;;;;5057845;28;20072;-82
2022/04/17 02:43:52;;;;;;;8.70;4.47;;;;;;;;;;5057473;28;20100;-82
2022/04/17 02:49:16;;;;;;;;;;;;;;;;;;4991266;28;20444;-82
2022/04/17 02:51:44;;;;;;;10.55;4.50;;;;;;;;;;5038592;28;20667;-82
2022/04/17 02:54:13;;;;;;;7.82;4.32;;;;;;;;;;5038064;28;20049;-82
2022/04/17 02:56:41;;;;;;;11.43;4.15;;;;;;;;;;5037714;28;20085;-82
2022/04/17 02:59:09;;;;;;;11.02;4.60;;;;;;;;;;5054313;28;20060;-82
2022/04/17 03:07:11;;;;;;;7.28;4.00;;;;;;;;;;5037105;28;20050;-82
2022/04/17 03:09:40;;;;;;;7.70;3.95;;;;;;;;;;5036645;28;20049;-82
2022/04/17 03:12:08;;;;;;;10.15;4.18;;;;;;;;;;5038035;28;20167;-82
2022/04/17 03:14:36;;;;;;;8.70;4.30;;;;;;;;;;5038556;28;20085;-82
2022/04/17 03:17:06;;;;;;;7.20;4.00;;;;;;;;;;5037729;28;20109;-82
2022/04/17 03:19:35;;;;;;;8.38;3.55;;;;;;;;;;5034328;28;20477;-82
2022/04/17 03:22:04;;;;;;;9.02;4.35;;;;;;;;;;5033449;28;20089;-82
2022/04/17 03:24:32;;;;;;;8.93;4.68;;;;;;;;;;5034377;28;20053;-82
2022/04/17 03:27:00;;;;;;;11.38;4.32;;;;;;;;;;5036195;28;20050;-82
2022/04/17 03:29:29;;;;;;;8.90;4.63;;;;;;;;;;5035760;28;20564;-81
2022/04/17 03:31:57;;;;;;;7.88;4.15;;;;;;;;;;5037067;28;20049;-82
2022/04/17 03:34:27;;;;;;;11.07;4.78;;;;;;;;;;5037317;28;20557;-82
2022/04/17 03:36:57;;;;;;;7.47;4.80;;;;;;;;;;5051538;28;20140;-82
2022/04/17 03:39:26;;;;;;;11.73;5.32;;;;;;;;;;5037154;28;20049;-82
2022/04/17 03:41:54;;;;;;;10.05;4.65;;;;;;;;;;5044204;28;20475;-82
2022/04/17 03:44:23;;;;;;;9.35;4.28;;;;;;;;;;5056162;28;20104;-82
2022/04/17 03:46:52;;;;;;;11.02;4.95;;;;;;;;;;5056472;28;20044;-82
2022/04/17 03:49:20;;;;;;;9.98;4.32;;;;;;;;;;5056308;28;20053;-82
2022/04/17 03:51:50;;;;;;;7.40;4.40;;;;;;;;;;5056607;28;20527;-82
2022/04/17 03:54:19;;;;;;;7.45;4.32;;;;;;;;;;5055774;28;20041;-82
2022/04/17 03:56:48;;;;;;;9.45;4.53;;;;;;;;;;5036909;28;20136;-81
2022/04/17 03:59:16;;;;;;;10.30;4.15;;;;;;;;;;5054285;28;20052;-82
2022/04/17 04:01:46;;;;;;;9.18;4.78;;;;;;;;;;5056918;28;20091;-82
2022/04/17 04:04:15;;;;;;;8.52;4.82;;;;;;;;;;5057136;28;20052;-82
2022/04/17 04:06:43;;;;;;;7.07;4.28;;;;;;;;;;5043697;28;20489;-81
2022/04/17 04:09:13;;;;;;;9.10;4.75;;;;;;;;;;5036673;28;20144;-82
2022/04/17 04:11:41;;;;;;;8.38;3.72;;;;;;;;;;5036503;28;20405;-82
2022/04/17 04:14:10;;;;;;;9.88;5.07;;;;;;;;;;5036934;28;20081;-82
2022/04/17 04:16:39;;;;;;;8.68;4.55;;;;;;;;;;5037056;28;20481;-82
2022/04/17 04:19:08;;;;;;;8.13;4.75;;;;;;;;;;5036418;28;20069;-82
2022/04/17 04:21:47;;;;;;;13.10;5.65;;;;;;;;;;5037003;28;20152;-82
2022/04/17 04:24:19;;;;;;;8.73;4.97;;;;;;;;;;5036689;28;20081;-82
2022/04/17 04:28:32;;;;;;;10.82;4.53;;;;;;;;;;5056011;28;20136;-82
2022/04/17 04:29:36;;;;;;;6.85;4.35;;;;;;;;;;5045317;28;20180;-82
2022/04/17 04:32:05;;;;;;;11.35;4.55;;;;;;;;;;5037096;28;20080;-82
2022/04/17 04:34:33;;;;;;;9.25;4.68;;;;;;;;;;5037458;28;20053;-82
2022/04/17 04:37:02;;;;;;;12.32;5.05;;;;;;;;;;5053864;28;20052;-82
2022/04/17 04:39:31;;;;;;;8.80;5.05;;;;;;;;;;5057279;28;20056;-82
2022/04/17 04:41:59;;;;;;;8.40;4.05;;;;;;;;;;5057382;28;20103;-82
2022/04/17 04:44:28;;;;;;;8.05;4.78;;;;;;;;;;5057008;28;20160;-82
2022/04/17 04:46:56;;;;;;;13.80;5.38;;;;;;;;;;5042820;28;20069;-82
2022/04/17 04:49:30;;;;;;;11.35;5.15;;;;;;;;;;5036075;28;20045;-82
2022/04/17 04:51:58;;;;;;;10.30;4.28;;;;;;;;;;5040683;28;20068;-82
2022/04/17 04:54:27;;;;;;;8.63;4.68;;;;;;;;;;5041717;28;20094;-82
2022/04/17 04:56:56;;;;;;;12.27;5.07;;;;;;;;;;5041035;28;20057;-82
2022/04/17 04:59:25;;;;;;;8.95;4.40;;;;;;;;;;5056838;28;20087;-82
2022/04/17 05:01:53;;;;;;;10.20;4.97;;;;;;;;;;5055162;28;20049;-82
2022/04/17 05:04:22;;;;;;;7.88;4.85;;;;;;;;;;5036281;28;20136;-82
2022/04/17 05:06:50;;;;;;;12.90;5.07;;;;;;;;;;5034700;28;20049;-82
2022/04/17 05:09:18;;;;;;;10.20;5.25;;;;;;;;;;5034179;28;20095;-82
2022/04/17 05:11:47;;;;;;;12.10;4.55;;;;;;;;;;5035336;28;20057;-82
2022/04/17 05:14:20;;;;;;;9.00;4.93;;;;;;;;;;5034517;28;20104;-82
2022/04/17 05:16:48;;;;;;;10.65;5.18;;;;;;;;;;5035053;28;20089;-82
2022/04/17 05:19:20;;;;;;;8.55;4.65;;;;;;;;;;5033823;28;20057;-82
2022/04/17 05:21:51;;;;;;;7.90;4.70;;;;;;;;;;5034463;28;20042;-83
2022/04/17 05:24:20;;;;;;;9.85;4.22;;;;;;;;;;5034114;28;20137;-82
2022/04/17 05:26:48;;;;;;;9.93;4.78;;;;;;;;;;5034286;28;20049;-82
2022/04/17 05:29:18;;;;;;;9.05;4.20;;;;;;;;;;5033755;28;20077;-82
2022/04/17 05:31:47;;;;;;;8.20;4.28;;;;;;;;;;5034873;28;20057;-82
2022/04/17 05:34:15;;;;;;;7.20;4.28;;;;;;;;;;5033984;28;20048;-82
2022/04/17 05:36:44;;;;;;;7.85;4.80;;;;;;;;;;5043611;28;20443;-82
2022/04/17 05:39:12;;;;;;;9.13;4.32;;;;;;;;;;5033744;28;20136;-82
2022/04/17 05:41:40;;;;;;;10.10;4.63;;;;;;;;;;5040030;28;20075;-82
2022/04/17 05:44:09;;;;;;;9.73;4.57;;;;;;;;;;5053162;28;20055;-82
2022/04/17 05:46:41;;;;;;;6.95;4.00;;;;;;;;;;5054628;28;20139;-82
2022/04/17 05:49:09;;;;;;;8.65;4.53;;;;;;;;;;5054929;28;20381;-82
2022/04/17 05:51:38;;;;;;;8.18;4.15;;;;;;;;;;5055433;28;20053;-82
2022/04/17 05:54:07;;;;;;;7.25;4.63;;;;;;;;;;5045745;28;20065;-83
2022/04/17 05:56:37;;;;;;;8.70;4.35;;;;;;;;;;5033776;28;20425;-82
2022/04/17 05:59:06;;;;;;;8.25;4.15;;;;;;;;;;5034502;28;20061;-82
2022/04/17 06:01:35;;;;;;;9.98;4.30;;;;;;;;;;5033476;28;20484;-82
2022/04/17 06:04:05;;;;;;;10.93;3.80;;;;;;;;;;5033126;28;20050;-82
2022/04/17 06:06:33;;;;;;;7.43;4.05;;;;;;;;;;5034076;28;20084;-83
2022/04/17 06:09:02;;;;;;;9.70;4.18;;;;;;;;;;5033187;28;20148;-83
2022/04/17 06:11:31;;;;;;;9.02;4.47;;;;;;;;;;5033709;28;20057;-83
2022/04/17 06:13:59;;;;;;;10.50;3.67;;;;;;;;;;5033090;28;20075;-82
2022/04/17 06:16:28;;;;;;;7.97;3.88;;;;;;;;;;5033731;28;20111;-82
2022/04/17 06:18:57;;;;;;;7.82;3.90;;;;;;;;;;5032995;28;20073;-82
2022/04/17 06:21:27;;;;;;;7.13;3.53;;;;;;;;;;5033458;28;20053;-83
2022/04/17 06:23:55;;;;;;;5.80;3.55;;;;;;;;;;5033670;28;20073;-82
2022/04/17 06:26:23;;;;;;;4.53;3.20;;;;;;;;;;5045063;28;20590;-82
2022/04/17 06:28:51;;;;;;;7.30;3.50;;;;;;;;;;5038955;28;20041;-83
2022/04/17 06:31:20;;;;;;;6.63;3.50;;;;;;;;;;5033436;28;20128;-82
2022/04/17 06:33:48;;;;;;;6.55;3.80;;;;;;;;;;5032814;28;20060;-82
2022/04/17 06:36:16;;;;;;;6.15;3.45;;;;;;;;;;5043288;28;20057;-83
2022/04/17 06:38:46;;;;;;;7.95;3.45;;;;;;;;;;5051209;28;20415;-83
2022/04/17 06:41:14;;;;;;;6.18;3.60;;;;;;;;;;5052824;28;20045;-82
2022/04/17 06:43:49;;;;;;;6.78;3.63;;;;;;;;;;5052831;28;20055;-83
2022/04/17 06:46:17;;;;;;;6.72;3.33;;;;;;;;;;5034966;28;20459;-82
2022/04/17 06:48:45;;;;;;;4.72;3.10;;;;;;;;;;5033137;28;20053;-83
2022/04/17 06:51:13;;;;;;;5.50;3.17;;;;;;;;;;5033508;28;20140;-83
2022/04/17 06:53:42;;;;;;;7.00;3.30;;;;;;;;;;5033300;28;20132;-83
2022/04/17 06:56:15;;;;;;;6.53;3.42;;;;;;;;;;5033036;28;20045;-83
2022/04/17 06:58:43;;;;;;;6.93;3.75;;;;;;;;;;5034482;28;20184;-83
2022/04/17 07:01:14;;;;;;;5.80;3.17;;;;;;;;;;5051392;28;20079;-83
2022/04/17 07:03:43;;;;;;;4.85;3.00;;;;;;;;;;5033129;28;20046;-83
2022/04/17 07:06:11;;;;;;;6.80;3.30;;;;;;;;;;5032384;28;20100;-83
2022/04/17 07:08:39;;;;;;;5.65;3.05;;;;;;;;;;5032058;28;20433;-83
2022/04/17 07:11:17;;;;;;;4.68;2.97;;;;;;;;;;5032598;28;20088;-83
2022/04/17 07:13:45;;;;;;;5.82;3.22;;;;;;;;;;5031886;28;20100;-82
2022/04/17 07:16:13;;;;;;;5.32;3.33;;;;;;;;;;5031762;28;20556;-83
2022/04/17 07:18:42;;;;;;;6.50;2.97;;;;;;;;;;5032248;28;20052;-83
2022/04/17 07:21:11;;;;;;;3.95;2.80;;;;;;;;;;5032220;28;20045;-82
2022/04/17 07:23:39;;;;;;;8.25;3.03;;;;;;;;;;5032706;28;20076;-82
2022/04/17 07:26:15;;;;;;;7.45;3.05;;;;;;;;;;5032363;28;20425;-82
2022/04/17 07:28:46;;;;;;;6.40;3.00;;;;;;;;;;5032186;28;20084;-82
2022/04/17 07:31:14;;;;;;;3.67;2.60;;;;;;;;;;5032268;28;20225;-82
2022/04/17 07:33:43;;;;;;;5.20;2.60;;;;;;;;;;5032550;28;20050;-82
2022/04/17 07:36:11;;;;;;;6.95;2.95;;;;;;;;;;5032529;28;20486;-82
2022/04/17 07:38:40;;;;;;;4.05;2.70;;;;;;;;;;5031442;28;20222;-82
2022/04/17 07:41:11;;;;;;;4.38;2.70;;;;;;;;;;5033065;28;20052;-82
2022/04/17 07:43:41;;;;;;;5.93;2.40;;;;;;;;;;5052152;28;20097;-82
2022/04/17 07:46:12;;;;;;;6.28;2.60;;;;;;;;;;5051519;28;20076;-82
2022/04/17 07:48:40;;;;;;;4.93;2.85;;;;;;;;;;5051287;28;20051;-82
2022/04/17 07:51:12;;;;;;;3.58;2.17;;;;;;;;;;5052021;28;20060;-82
2022/04/17 07:53:40;;;;;;;2.97;2.13;;;;;;;;;;5038750;28;20049;-82
2022/04/17 07:56:11;;;;;;;4.70;2.55;;;;;;;;;;5031964;28;20493;-82
2022/04/17 07:58:41;;;;;;;3.15;2.10;;;;;;;;;;5033499;28;20593;-82
2022/04/17 08:01:14;;;;;;;5.43;2.22;;;;;;;;;;5031490;28;20493;-82
2022/04/17 08:03:51;;;;;;;2.08;1.70;;;;;;;;;;5033420;28;20046;-82
2022/04/17 08:06:21;;;;;;;3.92;2.00;;;;;;;;;;5032764;28;20055;-82
2022/04/17 08:08:52;;;;;;;3.35;2.38;;;;;;;;;;5032174;28;20053;-82
2022/04/17 08:11:21;;;;;;;4.38;2.78;;;;;;;;;;5033607;28;20050;-82
2022/04/17 08:13:50;;;;;;;4.53;2.40;;;;;;;;;;5032159;28;20041;-82
2022/04/17 08:16:19;;;;;;;5.47;2.03;;;;;;;;;;5033591;28;20077;-82
2022/04/17 08:18:47;;;;;;;4.93;2.75;;;;;;;;;;5032888;28;20072;-82
2022/04/17 08:21:17;;;;;;;3.33;2.20;;;;;;;;;;5035710;28;20049;-82
2022/04/17 08:23:45;;;;;;;4.45;2.60;;;;;;;;;;5035029;28;20135;-82
2022/04/17 08:26:13;;;;;;;2.42;2.13;;;;;;;;;;5054316;28;20069;-82
2022/04/17 08:28:41;;;;;;;3.83;2.42;;;;;;;;;;5038937;28;20053;-82
2022/04/17 08:31:11;;;;;;;3.53;1.90;;;;;;;;;;5039195;28;20053;-82
2022/04/17 08:33:40;;;;;;;6.18;2.20;;;;;;;;;;5044050;28;20059;-82
2022/04/17 08:36:12;;;;;;;2.88;2.30;;;;;;;;;;5047697;28;20502;-82
2022/04/17 08:38:42;;;;;;;3.15;2.30;;;;;;;;;;5056776;28;20075;-82
2022/04/17 08:41:12;;;;;;;5.30;2.80;;;;;;;;;;5057647;28;20085;-82
2022/04/17 08:43:40;;;;;;;4.57;2.40;;;;;;;;;;5061400;28;20524;-82
2022/04/17 08:46:13;;;;;;;4.43;2.40;;;;;;;;;;5037871;28;20076;-82
2022/04/17 08:48:41;;;;;;;4.47;2.47;;;;;;;;;;5032104;28;20128;-82
2022/04/17 08:51:12;;;;;;;5.95;2.80;;;;;;;;;;5032546;28;20151;-82
2022/04/17 08:53:41;;;;;;;4.45;2.80;;;;;;;;;;5031402;28;20133;-82
2022/04/17 08:56:10;;;;;;;5.57;2.50;;;;;;;;;;5031720;28;20119;-82
2022/04/17 08:58:41;;;;;;;3.88;2.40;;;;;;;;;;5032620;28;20061;-82
2022/04/17 09:01:15;;;;;;;6.47;2.60;;;;;;;;;;5031088;28;20528;-82
2022/04/17 09:03:43;;;;;;;3.65;2.33;;;;;;;;;;5030633;28;20500;-82
2022/04/17 09:06:12;;;;;;;5.80;2.50;;;;;;;;;;5030478;28;20588;-82
2022/04/17 09:08:57;;;;;;;3.15;2.00;;;;;;;;;;5030711;28;20049;-82
2022/04/17 09:11:29;;;;;;;4.57;2.60;;;;;;;;;;5031208;28;20140;-82
2022/04/17 09:13:57;;;;;;;3.53;2.17;;;;;;;;;;5030347;28;20576;-82
2022/04/17 09:16:28;;;;;;;3.92;2.55;;;;;;;;;;5030791;28;20132;-82
2022/04/17 09:18:57;;;;;;;5.00;2.42;;;;;;;;;;5030234;28;20046;-82
2022/04/17 09:21:29;;;;;;;5.53;2.60;;;;;;;;;;5030781;28;20052;-82
2022/04/17 09:24:13;;;;;;;4.70;2.50;;;;;;;;;;5030453;28;20054;-82
2022/04/17 09:26:49;;;;;;;2.90;2.33;;;;;;;;;;5030921;28;20087;-82
2022/04/17 09:29:21;;;;;;;5.32;2.47;;;;;;;;;;5030209;28;20141;-82
2022/04/17 09:31:56;;;;;;;2.97;2.33;;;;;;;;;;5031079;28;20133;-82
2022/04/17 09:34:25;;;;;;;5.00;2.20;;;;;;;;;;5030773;28;20136;-82
2022/04/17 09:36:54;;;;;;;3.42;2.30;;;;;;;;;;5047004;28;20072;-83
2022/04/17 09:39:22;;;;;;;4.05;2.38;;;;;;;;;;5053757;28;20104;-82
2022/04/17 09:41:56;;;;;;;5.50;2.33;;;;;;;;;;5047053;28;20556;-82
2022/04/17 09:44:35;;;;;;;5.68;2.40;;;;;;;;;;5034214;28;20128;-82
2022/04/17 09:47:06;;;;;;;5.20;2.45;;;;;;;;;;5034000;28;20080;-82
2022/04/17 09:49:49;;;;;;;3.50;2.42;;;;;;;;;;5033261;28;20055;-82
2022/04/17 09:52:18;;;;;;;2.60;1.95;;;;;;;;;;5034115;28;20156;-82
2022/04/17 09:54:46;;;;;;;4.47;2.10;;;;;;;;;;5034196;28;20080;-82
2022/04/17 09:57:19;;;;;;;3.22;1.80;;;;;;;;;;5035183;28;20065;-82
2022/04/17 09:59:48;;;;;;;4.20;2.10;;;;;;;;;;5033656;28;20449;-82
2022/04/17 10:02:19;;;;;;;2.53;1.98;;;;;;;;;;5033383;28;20560;-82
2022/04/17 10:04:49;;;;;;;3.90;2.03;;;;;;;;;;5033689;28;20489;-82
2022/04/17 10:07:19;;;;;;;3.40;2.30;;;;;;;;;;5033654;28;20113;-82
2022/04/17 10:09:48;;;;;;;3.60;2.45;;;;;;;;;;5033445;28;20052;-82
2022/04/17 10:12:19;;;;;;;3.80;2.33;;;;;;;;;;5033625;28;20153;-82
2022/04/17 10:14:48;;;;;;;4.15;1.98;;;;;;;;;;5033381;28;20568;-82
2022/04/17 10:17:20;;;;;;;3.17;2.30;;;;;;;;;;5033840;28;20057;-83
2022/04/17 10:19:49;;;;;;;5.47;2.75;;;;;;;;;;5033071;28;20148;-83
2022/04/17 10:22:20;;;;;;;4.75;2.28;;;;;;;;;;5032402;28;20161;-83
2022/04/17 10:24:58;;;;;;;3.55;2.40;;;;;;;;;;5033767;28;20054;-83
2022/04/17 10:27:28;;;;;;;2.72;1.95;;;;;;;;;;5033476;28;20076;-83
2022/04/17 10:30:00;;;;;;;5.55;2.28;;;;;;;;;;5032726;28;20591;-83
2022/04/17 10:32:47;;;;;;;3.20;1.85;;;;;;;;;;5032884;28;20136;-83
2022/04/17 10:35:26;;;;;;;5.15;2.20;;;;;;;;;;5034898;28;20049;-82
2022/04/17 10:38:11;;;;;;;3.50;2.08;;;;;;;;;;5052826;28;20172;-82
2022/04/17 10:40:40;;;;;;;3.47;2.30;;;;;;;;;;5053154;28;20053;-82
2022/04/17 10:43:08;;;;;;;5.22;2.63;;;;;;;;;;5045035;28;20128;-83
2022/04/17 10:45:51;;;;;;;3.53;2.00;;;;;;;;;;5033386;28;20136;-83
2022/04/17 10:48:28;;;;;;;2.50;2.13;;;;;;;;;;5030775;28;20152;-83
2022/04/17 10:50:57;;;;;;;2.92;2.30;;;;;;;;;;5033185;28;20057;-83
2022/04/17 10:53:26;;;;;;;3.67;2.28;;;;;;;;;;5033344;28;20401;-82
2022/04/17 10:56:12;;;;;;;5.05;2.35;;;;;;;;;;5032694;28;20063;-83
2022/04/17 10:58:45;;;;;;;2.83;2.50;;;;;;;;;;5033856;28;20545;-83
2022/04/17 11:01:13;;;;;;;3.40;2.33;;;;;;;;;;5033018;28;20136;-83
2022/04/17 11:03:52;;;;;;;5.47;2.75;;;;;;;;;;5051452;28;20559;-83
2022/04/17 11:06:30;;;;;;;3.00;2.13;;;;;;;;;;5052823;28;20203;-83
2022/04/17 11:09:05;;;;;;;3.65;2.40;;;;;;;;;;5051552;28;20077;-83
2022/04/17 11:11:37;;;;;;;2.85;2.40;;;;;;;;;;5054540;28;20369;-82
2022/04/17 11:14:10;;;;;;;2.30;2.10;;;;;;;;;;5052935;28;20049;-82
2022/04/17 11:16:49;;;;;;;4.03;2.47;;;;;;;;;;5048883;28;20488;-83
2022/04/17 11:19:19;;;;;;;5.32;2.72;;;;;;;;;;5031877;28;20149;-82
2022/04/17 11:21:51;;;;;;;3.13;2.03;;;;;;;;;;5032674;28;20045;-83
2022/04/17 11:24:20;;;;;;;5.68;1.90;;;;;;;;;;5031795;28;20520;-83
2022/04/17 11:27:06;;;;;;;3.40;2.33;;;;;;;;;;5032438;28;20088;-83
2022/04/17 11:29:35;;;;;;;2.95;2.03;;;;;;;;;;5031558;28;20556;-83
2022/04/17 11:32:04;;;;;;;4.20;2.63;;;;;;;;;;5032286;28;20091;-83
2022/04/17 11:34:42;;;;;;;3.33;2.30;;;;;;;;;;5032466;28;20116;-83
2022/04/17 11:37:12;;;;;;;3.55;1.92;;;;;;;;;;5049606;28;20049;-83
2022/04/17 11:39:40;;;;;;;2.45;1.90;;;;;;;;;;5051488;28;20547;-83
2022/04/17 11:42:10;;;;;;;3.45;2.30;;;;;;;;;;5051818;28;20044;-83
2022/04/17 11:44:41;;;;;;;3.35;2.30;;;;;;;;;;5051822;28;20400;-83
2022/04/17 11:47:10;;;;;;;4.35;2.30;;;;;;;;;;5051572;28;20049;-83
2022/04/17 11:49:40;;;;;;;3.70;2.20;;;;;;;;;;5051158;28;20076;-83
2022/04/17 11:52:13;;;;;;;6.40;2.40;;;;;;;;;;5035563;28;20067;-83
2022/04/17 11:54:42;;;;;;;4.30;1.80;;;;;;;;;;5032172;28;20057;-83
2022/04/17 11:57:11;;;;;;;3.35;1.88;;;;;;;;;;5032633;28;20141;-83
2022/04/17 11:59:46;;;;;;;3.33;2.33;;;;;;;;;;5031253;28;20077;-82
2022/04/17 12:02:16;;;;;;;2.75;1.98;;;;;;;;;;5031968;28;20057;-82
2022/04/17 12:04:46;;;;;;;2.75;2.05;;;;;;;;;;5031869;28;20112;-82
2022/04/17 12:07:19;;;;;;;2.75;2.17;;;;;;;;;;5031201;28;20512;-82
2022/04/17 12:09:48;;;;;;;4.88;1.80;;;;;;;;;;5031516;28;20139;-82
2022/04/17 12:12:17;;;;;;;2.65;1.80;;;;;;;;;;5031939;28;20052;-82
2022/04/17 12:14:46;;;;;;;2.85;2.00;;;;;;;;;;5031415;28;20077;-82
2022/04/17 12:17:15;;;;;;;5.43;2.03;;;;;;;;;;5047698;28;20128;-82
2022/04/17 12:19:50;;;;;;;3.67;1.95;;;;;;;;;;5050354;28;20061;-82
2022/04/17 12:22:20;;;;;;;2.60;1.88;;;;;;;;;;5051218;28;20547;-83
2022/04/17 12:24:48;;;;;;;4.05;1.88;;;;;;;;;;5046212;28;20141;-82
2022/04/17 12:27:19;;;;;;;2.40;1.75;;;;;;;;;;5031684;28;20143;-82
2022/04/17 12:29:48;;;;;;;3.33;2.05;;;;;;;;;;5030551;28;20057;-82
2022/04/17 12:32:16;;;;;;;2.67;1.58;;;;;;;;;;5031755;28;20133;-83
2022/04/17 12:34:46;;;;;;;4.45;1.90;;;;;;;;;;5031499;28;20176;-82
2022/04/17 12:37:21;;;;;;;3.00;1.60;;;;;;;;;;5048709;28;20055;-83
2022/04/17 12:39:49;;;;;;;;;;;;;;;;;;5051347;28;20132;-83
2022/04/17 12:42:18;;;;;;;1.90;1.60;;;;;;;;;;5040926;28;19928;-83
2022/04/17 12:44:47;;;;;;;2.35;1.58;;;;;;;;;;5031442;28;20137;-83
2022/04/17 12:47:16;;;;;;;1.98;1.50;;;;;;;;;;5031003;28;20099;-82
2022/04/17 12:49:44;;;;;;;3.28;1.77;;;;;;;;;;5030248;28;20140;-82
2022/04/17 12:52:22;;;;;;;3.90;1.70;;;;;;;;;;5030582;28;20486;-83
2022/04/17 12:54:51;;;;;;;2.58;1.70;;;;;;;;;;5031233;28;20073;-82
2022/04/17 12:57:21;;;;;;;2.00;1.48;;;;;;;;;;5032617;28;20081;-83
2022/04/17 12:59:51;;;;;;;2.42;1.48;;;;;;;;;;5031796;28;20081;-83
2022/04/17 13:02:19;;;;;;;2.97;1.67;;;;;;;;;;5031275;28;20115;-82
2022/04/17 13:04:48;;;;;;;2.38;1.60;;;;;;;;;;5030714;28;20097;-83
2022/04/17 13:07:17;;;;;;;3.47;1.80;;;;;;;;;;5030606;28;20089;-82
2022/04/17 13:09:56;;;;;;;1.83;1.50;;;;;;;;;;5030303;28;20140;-83
2022/04/17 13:12:34;;;;;;;2.72;1.88;;;;;;;;;;5033271;28;20435;-83
2022/04/17 13:15:03;;;;;;;2.53;1.83;;;;;;;;;;5034730;28;20505;-82
2022/04/17 13:17:31;;;;;;;2.50;1.67;;;;;;;;;;5035076;28;20050;-82
2022/04/17 13:20:01;;;;;;;2.35;1.40;;;;;;;;;;5034100;28;20125;-83
2022/04/17 13:22:29;;;;;;;3.33;1.60;;;;;;;;;;5034536;28;20124;-82
2022/04/17 13:24:59;;;;;;;3.40;1.50;;;;;;;;;;5034616;28;20081;-83
2022/04/17 13:27:27;;;;;;;2.95;1.63;;;;;;;;;;5034961;28;20045;-83
2022/04/17 13:29:55;;;;;;;2.80;1.23;;;;;;;;;;5034234;28;20116;-83
2022/04/17 13:32:23;;;;;;;2.10;1.50;;;;;;;;;;5034268;28;20132;-83
2022/04/17 13:34:53;;;;;;;3.60;1.70;;;;;;;;;;5037660;28;20053;-82
2022/04/17 13:40:09;;;;;;;2.67;1.50;;;;;;;;;;5054084;28;20053;-83
2022/04/17 13:42:38;;;;;;;1.60;1.27;;;;;;;;;;5054215;28;20053;-83
2022/04/17 13:45:08;;;;;;;3.55;1.50;;;;;;;;;;5054096;28;20049;-83
2022/04/17 13:47:37;;;;;;;2.33;1.65;;;;;;;;;;5054074;28;20049;-83
2022/04/17 13:50:05;;;;;;;2.47;1.33;;;;;;;;;;5045627;28;20113;-82
2022/04/17 13:52:34;;;;;;;2.83;1.55;;;;;;;;;;5034537;28;20076;-83
2022/04/17 13:55:03;;;;;;;1.73;1.20;;;;;;;;;;5033750;28;20456;-83
2022/04/17 13:57:33;;;;;;;3.17;1.50;;;;;;;;;;5035634;28;20120;-83
2022/04/17 14:00:01;;;;;;;3.22;1.67;;;;;;;;;;5033752;28;20140;-83
2022/04/17 14:02:29;;;;;;;3.45;1.42;;;;;;;;;;5034112;28;20049;-83
2022/04/17 14:04:57;;;;;;;2.55;1.70;;;;;;;;;;5033828;28;20061;-83
2022/04/17 14:07:26;;;;;;;2.95;1.48;;;;;;;;;;5033778;28;20128;-83
2022/04/17 14:09:54;;;;;;;2.53;1.38;;;;;;;;;;5032694;28;20493;-81
2022/04/17 14:12:24;;;;;;;2.78;1.63;;;;;;;;;;5033735;28;20053;-83
2022/04/17 14:14:55;;;;;;;1.80;1.65;;;;;;;;;;5033574;28;20457;-83
2022/04/17 14:17:24;;;;;;;2.95;1.40;;;;;;;;;;5033772;28;20132;-82
2022/04/17 14:19:53;;;;;;;2.08;1.55;;;;;;;;;;5032354;28;20421;-83
2022/04/17 14:22:24;;;;;;;1.95;1.27;;;;;;;;;;5051115;28;20073;-82
2022/04/17 14:24:52;;;;;;;3.17;1.92;;;;;;;;;;5039116;28;20493;-83
2022/04/17 14:27:21;;;;;;;2.40;1.55;;;;;;;;;;5033674;28;20075;-82
2022/04/17 14:29:50;;;;;;;2.85;1.52;;;;;;;;;;5033088;28;20072;-83
2022/04/17 14:32:19;;;;;;;1.92;1.33;;;;;;;;;;5033459;28;20160;-82
2022/04/17 14:34:48;;;;;;;5.43;1.73;;;;;;;;;;5033668;28;20136;-83
2022/04/17 14:37:16;;;;;;;4.32;2.40;;;;;;;;;;5051613;28;20411;-82
2022/04/17 14:39:45;;;;;;;4.03;1.73;;;;;;;;;;5052194;28;20076;-83
2022/04/17 14:42:13;;;;;;;2.45;1.58;;;;;;;;;;5036283;28;20087;-82
2022/04/17 14:44:42;;;;;;;3.35;1.67;;;;;;;;;;5033507;28;20042;-82
2022/04/17 14:47:10;;;;;;;2.15;1.60;;;;;;;;;;5032920;28;20049;-82
2022/04/17 14:49:42;;;;;;;1.95;1.52;;;;;;;;;;5032488;28;20049;-83
2022/04/17 14:52:10;;;;;;;2.38;1.33;;;;;;;;;;5033798;28;20141;-83
2022/04/17 14:54:40;;;;;;;3.85;1.60;;;;;;;;;;5032710;28;20576;-82
2022/04/17 14:57:08;;;;;;;2.85;1.48;;;;;;;;;;5033608;28;20050;-83
2022/04/17 14:59:37;;;;;;;2.60;1.70;;;;;;;;;;5051684;28;20468;-82
2022/04/17 15:02:06;;;;;;;2.17;1.50;;;;;;;;;;5052972;28;20053;-83
2022/04/17 15:04:40;;;;;;;2.25;1.45;;;;;;;;;;5052069;28;20112;-83
2022/04/17 15:07:09;;;;;;;2.70;1.50;;;;;;;;;;5052840;28;20616;-82
2022/04/17 15:09:37;;;;;;;3.08;1.50;;;;;;;;;;5052287;28;20419;-83
2022/04/17 15:12:06;;;;;;;1.73;1.17;;;;;;;;;;5052861;28;20515;-82
2022/04/17 15:14:34;;;;;;;1.58;1.40;;;;;;;;;;5049400;28;20121;-83